sensor_id;sensor_type;location;lat;lon;timestamp;temperature;humidity
4312;DHT22;2169;49.086;9.284;2023-03-23T00:02:13;13.70;55.10
4312;DHT22;2169;49.086;9.284;2023-03-23T00:04:40;13.80;55.10
4312;DHT22;2169;49.086;9.284;2023-03-23T00:07:08;13.80;55.00
4312;DHT22;2169;49.086;9.284;2023-03-23T00:09:34;13.80;54.90
4312;DHT22;2169;49.086;9.284;2023-03-23T00:12:08;13.80;54.80
4312;DHT22;2169;49.086;9.284;2023-03-23T00:14:37;13.80;54.70
4312;DHT22;2169;49.086;9.284;2023-03-23T00:17:08;13.80;54.50
4312;DHT22;2169;49.086;9.284;2023-03-23T00:19:36;13.90;54.50
4312;DHT22;2169;49.086;9.284;2023-03-23T00:22:11;13.90;54.40
4312;DHT22;2169;49.086;9.284;2023-03-23T00:24:41;13.90;54.30
4312;DHT22;2169;49.086;9.284;2023-03-23T00:27:10;13.90;54.10
4312;DHT22;2169;49.086;9.284;2023-03-23T00:29:40;14.00;54.10
4312;DHT22;2169;49.086;9.284;2023-03-23T00:32:07;14.00;54.00
4312;DHT22;2169;49.086;9.284;2023-03-23T00:34:38;14.00;53.90
4312;DHT22;2169;49.086;9.284;2023-03-23T00:37:06;14.00;53.70
4312;DHT22;2169;49.086;9.284;2023-03-23T00:39:33;14.00;53.60
4312;DHT22;2169;49.086;9.284;2023-03-23T00:42:03;14.10;53.40
4312;DHT22;2169;49.086;9.284;2023-03-23T00:44:32;14.10;53.40
4312;DHT22;2169;49.086;9.284;2023-03-23T00:47:01;14.10;53.30
4312;DHT22;2169;49.086;9.284;2023-03-23T00:49:28;14.10;53.20
4312;DHT22;2169;49.086;9.284;2023-03-23T00:51:57;14.10;53.10
4312;DHT22;2169;49.086;9.284;2023-03-23T00:54:25;14.20;53.20
4312;DHT22;2169;49.086;9.284;2023-03-23T00:56:52;14.20;53.20
4312;DHT22;2169;49.086;9.284;2023-03-23T00:59:20;14.20;53.20
4312;DHT22;2169;49.086;9.284;2023-03-23T01:01:49;14.20;53.20
4312;DHT22;2169;49.086;9.284;2023-03-23T01:04:16;14.20;53.20
4312;DHT22;2169;49.086;9.284;2023-03-23T01:06:44;14.20;53.20
4312;DHT22;2169;49.086;9.284;2023-03-23T01:09:14;14.20;53.20
4312;DHT22;2169;49.086;9.284;2023-03-23T01:11:42;14.20;53.20
4312;DHT22;2169;49.086;9.284;2023-03-23T01:14:09;14.20;53.10
4312;DHT22;2169;49.086;9.284;2023-03-23T01:16:36;14.20;53.10
4312;DHT22;2169;49.086;9.284;2023-03-23T01:19:04;14.20;53.10
4312;DHT22;2169;49.086;9.284;2023-03-23T01:21:31;14.20;53.10
4312;DHT22;2169;49.086;9.284;2023-03-23T01:23:58;14.20;53.70
4312;DHT22;2169;49.086;9.284;2023-03-23T01:26:27;14.20;53.00
4312;DHT22;2169;49.086;9.284;2023-03-23T01:28:54;14.20;53.00
4312;DHT22;2169;49.086;9.284;2023-03-23T01:31:23;14.20;53.00
4312;DHT22;2169;49.086;9.284;2023-03-23T01:33:50;14.20;53.00
4312;DHT22;2169;49.086;9.284;2023-03-23T01:36:20;14.20;53.00
4312;DHT22;2169;49.086;9.284;2023-03-23T01:38:48;14.20;53.60
4312;DHT22;2169;49.086;9.284;2023-03-23T01:41:18;14.20;53.00
4312;DHT22;2169;49.086;9.284;2023-03-23T01:44:00;14.30;53.00
4312;DHT22;2169;49.086;9.284;2023-03-23T01:46:29;14.30;53.00
4312;DHT22;2169;49.086;9.284;2023-03-23T01:48:58;14.30;53.60
4312;DHT22;2169;49.086;9.284;2023-03-23T01:51:28;14.30;53.00
4312;DHT22;2169;49.086;9.284;2023-03-23T01:53:56;14.30;53.00
4312;DHT22;2169;49.086;9.284;2023-03-23T01:56:26;14.30;53.00
4312;DHT22;2169;49.086;9.284;2023-03-23T01:58:55;14.30;52.90
4312;DHT22;2169;49.086;9.284;2023-03-23T02:01:24;14.30;53.00
4312;DHT22;2169;49.086;9.284;2023-03-23T02:03:52;14.30;53.00
4312;DHT22;2169;49.086;9.284;2023-03-23T02:06:21;14.30;53.00
4312;DHT22;2169;49.086;9.284;2023-03-23T02:08:51;14.30;53.00
4312;DHT22;2169;49.086;9.284;2023-03-23T02:11:20;14.30;52.90
4312;DHT22;2169;49.086;9.284;2023-03-23T02:13:48;14.30;52.90
4312;DHT22;2169;49.086;9.284;2023-03-23T02:16:23;14.30;52.90
4312;DHT22;2169;49.086;9.284;2023-03-23T02:18:59;14.30;52.80
4312;DHT22;2169;49.086;9.284;2023-03-23T02:21:52;14.30;52.70
4312;DHT22;2169;49.086;9.284;2023-03-23T02:24:52;14.30;52.70
4312;DHT22;2169;49.086;9.284;2023-03-23T02:30:34;14.30;52.70
4312;DHT22;2169;49.086;9.284;2023-03-23T02:36:10;14.30;52.60
4312;DHT22;2169;49.086;9.284;2023-03-23T02:38:44;14.30;52.60
4312;DHT22;2169;49.086;9.284;2023-03-23T02:41:18;14.30;52.60
4312;DHT22;2169;49.086;9.284;2023-03-23T02:43:46;14.30;52.50
4312;DHT22;2169;49.086;9.284;2023-03-23T02:46:14;14.30;52.50
4312;DHT22;2169;49.086;9.284;2023-03-23T02:48:45;14.30;52.50
4312;DHT22;2169;49.086;9.284;2023-03-23T02:51:14;14.30;52.50
4312;DHT22;2169;49.086;9.284;2023-03-23T02:53:43;14.30;52.50
4312;DHT22;2169;49.086;9.284;2023-03-23T02:56:12;14.30;52.50
4312;DHT22;2169;49.086;9.284;2023-03-23T02:58:40;14.30;52.40
4312;DHT22;2169;49.086;9.284;2023-03-23T03:01:16;14.30;52.40
4312;DHT22;2169;49.086;9.284;2023-03-23T03:03:45;14.30;52.30
4312;DHT22;2169;49.086;9.284;2023-03-23T03:06:20;14.30;52.30
4312;DHT22;2169;49.086;9.284;2023-03-23T03:08:54;14.30;52.20
4312;DHT22;2169;49.086;9.284;2023-03-23T03:11:22;14.30;52.20
4312;DHT22;2169;49.086;9.284;2023-03-23T03:13:55;14.30;52.10
4312;DHT22;2169;49.086;9.284;2023-03-23T03:16:27;14.30;52.10
4312;DHT22;2169;49.086;9.284;2023-03-23T03:19:00;14.30;52.00
4312;DHT22;2169;49.086;9.284;2023-03-23T03:21:31;14.30;52.00
4312;DHT22;2169;49.086;9.284;2023-03-23T03:24:02;14.30;51.90
4312;DHT22;2169;49.086;9.284;2023-03-23T03:26:31;14.30;51.80
4312;DHT22;2169;49.086;9.284;2023-03-23T03:29:00;14.30;51.80
4312;DHT22;2169;49.086;9.284;2023-03-23T03:31:30;14.30;51.70
4312;DHT22;2169;49.086;9.284;2023-03-23T03:34:00;14.30;52.00
4312;DHT22;2169;49.086;9.284;2023-03-23T03:36:29;14.30;51.70
4312;DHT22;2169;49.086;9.284;2023-03-23T03:39:01;14.30;51.70
4312;DHT22;2169;49.086;9.284;2023-03-23T03:41:29;14.30;51.70
4312;DHT22;2169;49.086;9.284;2023-03-23T03:43:56;14.40;51.80
4312;DHT22;2169;49.086;9.284;2023-03-23T03:46:22;14.30;51.70
4312;DHT22;2169;49.086;9.284;2023-03-23T03:48:52;14.40;51.80
4312;DHT22;2169;49.086;9.284;2023-03-23T03:51:20;14.40;51.90
4312;DHT22;2169;49.086;9.284;2023-03-23T03:53:47;14.40;51.90
4312;DHT22;2169;49.086;9.284;2023-03-23T03:56:13;14.40;51.90
4312;DHT22;2169;49.086;9.284;2023-03-23T03:58:41;14.40;51.90
4312;DHT22;2169;49.086;9.284;2023-03-23T04:01:08;14.40;52.00
4312;DHT22;2169;49.086;9.284;2023-03-23T04:03:36;14.40;51.90
4312;DHT22;2169;49.086;9.284;2023-03-23T04:06:03;14.40;51.90
4312;DHT22;2169;49.086;9.284;2023-03-23T04:08:32;14.40;51.90
4312;DHT22;2169;49.086;9.284;2023-03-23T04:10:58;14.40;51.90
4312;DHT22;2169;49.086;9.284;2023-03-23T04:13:26;14.40;51.90
4312;DHT22;2169;49.086;9.284;2023-03-23T04:15:52;14.40;51.90
4312;DHT22;2169;49.086;9.284;2023-03-23T04:18:19;14.40;51.90
4312;DHT22;2169;49.086;9.284;2023-03-23T04:20:48;14.40;51.90
4312;DHT22;2169;49.086;9.284;2023-03-23T04:23:15;14.40;51.90
4312;DHT22;2169;49.086;9.284;2023-03-23T04:25:47;14.40;51.90
4312;DHT22;2169;49.086;9.284;2023-03-23T04:28:14;14.40;51.90
4312;DHT22;2169;49.086;9.284;2023-03-23T04:30:42;14.40;51.90
4312;DHT22;2169;49.086;9.284;2023-03-23T04:33:10;14.40;51.80
4312;DHT22;2169;49.086;9.284;2023-03-23T04:35:40;14.40;51.90
4312;DHT22;2169;49.086;9.284;2023-03-23T04:38:08;14.40;52.50
4312;DHT22;2169;49.086;9.284;2023-03-23T04:40:36;14.40;51.80
4312;DHT22;2169;49.086;9.284;2023-03-23T04:43:04;14.40;51.80
4312;DHT22;2169;49.086;9.284;2023-03-23T04:45:33;14.40;51.80
4312;DHT22;2169;49.086;9.284;2023-03-23T04:48:03;14.40;51.80
4312;DHT22;2169;49.086;9.284;2023-03-23T04:50:31;14.40;51.80
4312;DHT22;2169;49.086;9.284;2023-03-23T04:52:59;14.40;51.80
4312;DHT22;2169;49.086;9.284;2023-03-23T04:55:30;14.40;51.80
4312;DHT22;2169;49.086;9.284;2023-03-23T04:57:56;14.40;51.90
4312;DHT22;2169;49.086;9.284;2023-03-23T05:00:27;14.40;51.90
4312;DHT22;2169;49.086;9.284;2023-03-23T05:02:53;14.50;52.00
4312;DHT22;2169;49.086;9.284;2023-03-23T05:05:22;14.50;52.00
4312;DHT22;2169;49.086;9.284;2023-03-23T05:07:50;14.40;52.60
4312;DHT22;2169;49.086;9.284;2023-03-23T05:10:17;14.40;51.90
4312;DHT22;2169;49.086;9.284;2023-03-23T05:12:44;14.40;52.00
4312;DHT22;2169;49.086;9.284;2023-03-23T05:15:13;14.40;52.00
4312;DHT22;2169;49.086;9.284;2023-03-23T05:17:42;14.40;52.00
4312;DHT22;2169;49.086;9.284;2023-03-23T05:20:11;14.40;52.00
4312;DHT22;2169;49.086;9.284;2023-03-23T05:22:38;14.40;52.10
4312;DHT22;2169;49.086;9.284;2023-03-23T05:25:06;14.40;52.10
4312;DHT22;2169;49.086;9.284;2023-03-23T05:27:34;14.40;52.20
4312;DHT22;2169;49.086;9.284;2023-03-23T05:30:02;14.40;52.30
4312;DHT22;2169;49.086;9.284;2023-03-23T05:32:29;14.40;52.40
4312;DHT22;2169;49.086;9.284;2023-03-23T05:34:58;14.40;52.40
4312;DHT22;2169;49.086;9.284;2023-03-23T05:37:25;14.40;52.50
4312;DHT22;2169;49.086;9.284;2023-03-23T05:39:54;14.40;52.50
4312;DHT22;2169;49.086;9.284;2023-03-23T05:42:21;14.40;52.50
4312;DHT22;2169;49.086;9.284;2023-03-23T05:44:48;14.40;52.50
4312;DHT22;2169;49.086;9.284;2023-03-23T05:47:15;14.40;52.60
4312;DHT22;2169;49.086;9.284;2023-03-23T05:49:42;14.40;52.60
4312;DHT22;2169;49.086;9.284;2023-03-23T05:52:10;14.40;52.60
4312;DHT22;2169;49.086;9.284;2023-03-23T05:54:37;14.40;53.30
4312;DHT22;2169;49.086;9.284;2023-03-23T05:57:03;14.40;52.70
4312;DHT22;2169;49.086;9.284;2023-03-23T05:59:31;14.40;52.70
4312;DHT22;2169;49.086;9.284;2023-03-23T06:01:59;14.40;52.70
4312;DHT22;2169;49.086;9.284;2023-03-23T06:04:26;14.50;52.90
4312;DHT22;2169;49.086;9.284;2023-03-23T06:06:53;14.40;52.90
4312;DHT22;2169;49.086;9.284;2023-03-23T06:09:21;14.40;52.90
4312;DHT22;2169;49.086;9.284;2023-03-23T06:11:48;14.40;53.00
4312;DHT22;2169;49.086;9.284;2023-03-23T06:14:15;14.40;53.00
4312;DHT22;2169;49.086;9.284;2023-03-23T06:16:43;14.40;53.10
4312;DHT22;2169;49.086;9.284;2023-03-23T06:19:09;14.40;53.10
4312;DHT22;2169;49.086;9.284;2023-03-23T06:21:36;14.50;53.30
4312;DHT22;2169;49.086;9.284;2023-03-23T06:24:04;14.50;53.30
4312;DHT22;2169;49.086;9.284;2023-03-23T06:26:34;14.40;53.20
4312;DHT22;2169;49.086;9.284;2023-03-23T06:29:02;14.40;53.20
4312;DHT22;2169;49.086;9.284;2023-03-23T06:31:30;14.50;53.30
4312;DHT22;2169;49.086;9.284;2023-03-23T06:34:00;14.50;53.30
4312;DHT22;2169;49.086;9.284;2023-03-23T06:36:26;14.50;53.30
4312;DHT22;2169;49.086;9.284;2023-03-23T06:38:53;14.50;54.00
4312;DHT22;2169;49.086;9.284;2023-03-23T06:41:21;14.50;53.50
4312;DHT22;2169;49.086;9.284;2023-03-23T06:43:49;14.50;53.60
4312;DHT22;2169;49.086;9.284;2023-03-23T06:46:16;14.50;53.70
4312;DHT22;2169;49.086;9.284;2023-03-23T06:48:43;14.60;53.90
4312;DHT22;2169;49.086;9.284;2023-03-23T06:51:10;14.60;54.00
4312;DHT22;2169;49.086;9.284;2023-03-23T06:53:36;14.60;54.10
4312;DHT22;2169;49.086;9.284;2023-03-23T06:56:04;14.60;54.20
4312;DHT22;2169;49.086;9.284;2023-03-23T06:58:31;14.60;54.30
4312;DHT22;2169;49.086;9.284;2023-03-23T07:00:59;14.60;54.40
4312;DHT22;2169;49.086;9.284;2023-03-23T07:03:30;14.60;54.40
4312;DHT22;2169;49.086;9.284;2023-03-23T07:05:58;14.60;54.50
4312;DHT22;2169;49.086;9.284;2023-03-23T07:08:25;14.60;54.70
4312;DHT22;2169;49.086;9.284;2023-03-23T07:10:52;14.70;54.90
4312;DHT22;2169;49.086;9.284;2023-03-23T07:13:19;14.70;54.90
4312;DHT22;2169;49.086;9.284;2023-03-23T07:15:47;14.70;55.00
4312;DHT22;2169;49.086;9.284;2023-03-23T07:18:15;14.70;55.10
4312;DHT22;2169;49.086;9.284;2023-03-23T07:20:42;14.70;55.20
4312;DHT22;2169;49.086;9.284;2023-03-23T07:23:09;14.70;55.20
4312;DHT22;2169;49.086;9.284;2023-03-23T07:25:36;14.70;55.30
4312;DHT22;2169;49.086;9.284;2023-03-23T07:28:03;14.70;55.30
4312;DHT22;2169;49.086;9.284;2023-03-23T07:30:30;14.70;55.40
4312;DHT22;2169;49.086;9.284;2023-03-23T07:32:57;14.70;55.50
4312;DHT22;2169;49.086;9.284;2023-03-23T07:35:25;14.70;56.20
4312;DHT22;2169;49.086;9.284;2023-03-23T07:37:52;14.70;55.70
4312;DHT22;2169;49.086;9.284;2023-03-23T07:40:20;14.70;55.70
4312;DHT22;2169;49.086;9.284;2023-03-23T07:42:52;14.70;55.80
4312;DHT22;2169;49.086;9.284;2023-03-23T07:45:19;14.70;55.90
4312;DHT22;2169;49.086;9.284;2023-03-23T07:47:46;14.70;55.90
4312;DHT22;2169;49.086;9.284;2023-03-23T07:50:13;14.80;56.10
4312;DHT22;2169;49.086;9.284;2023-03-23T07:52:41;14.80;56.20
4312;DHT22;2169;49.086;9.284;2023-03-23T07:55:10;14.80;56.20
4312;DHT22;2169;49.086;9.284;2023-03-23T07:57:43;14.80;56.20
4312;DHT22;2169;49.086;9.284;2023-03-23T08:00:11;14.80;56.30
4312;DHT22;2169;49.086;9.284;2023-03-23T08:02:41;14.90;56.30
4312;DHT22;2169;49.086;9.284;2023-03-23T08:05:08;15.00;56.40
4312;DHT22;2169;49.086;9.284;2023-03-23T08:07:35;15.00;56.40
4312;DHT22;2169;49.086;9.284;2023-03-23T08:10:05;15.00;56.30
4312;DHT22;2169;49.086;9.284;2023-03-23T08:12:35;15.10;56.30
4312;DHT22;2169;49.086;9.284;2023-03-23T08:15:02;15.10;56.30
4312;DHT22;2169;49.086;9.284;2023-03-23T08:17:29;15.10;56.20
4312;DHT22;2169;49.086;9.284;2023-03-23T08:19:56;15.20;56.30
4312;DHT22;2169;49.086;9.284;2023-03-23T08:22:23;15.20;56.30
4312;DHT22;2169;49.086;9.284;2023-03-23T08:24:50;15.30;56.40
4312;DHT22;2169;49.086;9.284;2023-03-23T08:27:18;15.30;56.40
4312;DHT22;2169;49.086;9.284;2023-03-23T08:29:45;15.30;56.40
4312;DHT22;2169;49.086;9.284;2023-03-23T08:32:13;15.30;56.50
4312;DHT22;2169;49.086;9.284;2023-03-23T08:34:40;15.40;56.60
4312;DHT22;2169;49.086;9.284;2023-03-23T08:37:08;15.40;56.60
4312;DHT22;2169;49.086;9.284;2023-03-23T08:39:35;15.40;56.70
4312;DHT22;2169;49.086;9.284;2023-03-23T08:42:02;15.50;56.80
4312;DHT22;2169;49.086;9.284;2023-03-23T08:44:30;15.50;56.90
4312;DHT22;2169;49.086;9.284;2023-03-23T08:46:57;15.50;57.00
4312;DHT22;2169;49.086;9.284;2023-03-23T08:49:24;15.50;57.10
4312;DHT22;2169;49.086;9.284;2023-03-23T08:51:51;15.50;57.20
4312;DHT22;2169;49.086;9.284;2023-03-23T08:54:18;15.50;57.30
4312;DHT22;2169;49.086;9.284;2023-03-23T08:56:44;15.50;57.40
4312;DHT22;2169;49.086;9.284;2023-03-23T08:59:11;15.50;57.40
4312;DHT22;2169;49.086;9.284;2023-03-23T09:01:40;15.50;57.40
4312;DHT22;2169;49.086;9.284;2023-03-23T09:04:07;15.50;57.50
4312;DHT22;2169;49.086;9.284;2023-03-23T09:06:35;15.50;57.50
4312;DHT22;2169;49.086;9.284;2023-03-23T09:09:03;15.50;57.50
4312;DHT22;2169;49.086;9.284;2023-03-23T09:11:32;15.50;57.50
4312;DHT22;2169;49.086;9.284;2023-03-23T09:13:59;15.50;57.50
4312;DHT22;2169;49.086;9.284;2023-03-23T09:16:26;15.50;57.50
4312;DHT22;2169;49.086;9.284;2023-03-23T09:18:55;15.50;57.60
4312;DHT22;2169;49.086;9.284;2023-03-23T09:21:23;15.60;57.70
4312;DHT22;2169;49.086;9.284;2023-03-23T09:23:50;15.60;57.80
4312;DHT22;2169;49.086;9.284;2023-03-23T09:26:17;15.60;57.80
4312;DHT22;2169;49.086;9.284;2023-03-23T09:28:45;15.60;57.80
4312;DHT22;2169;49.086;9.284;2023-03-23T09:31:12;15.60;57.80
4312;DHT22;2169;49.086;9.284;2023-03-23T09:33:39;15.60;57.70
4312;DHT22;2169;49.086;9.284;2023-03-23T09:36:08;15.60;57.80
4312;DHT22;2169;49.086;9.284;2023-03-23T09:38:38;15.60;57.90
4312;DHT22;2169;49.086;9.284;2023-03-23T09:41:12;15.60;57.90
4312;DHT22;2169;49.086;9.284;2023-03-23T09:43:53;15.60;57.90
4312;DHT22;2169;49.086;9.284;2023-03-23T09:46:36;15.60;57.90
4312;DHT22;2169;49.086;9.284;2023-03-23T09:49:09;15.60;58.00
4312;DHT22;2169;49.086;9.284;2023-03-23T09:51:43;15.60;58.00
4312;DHT22;2169;49.086;9.284;2023-03-23T09:54:14;15.60;58.20
4312;DHT22;2169;49.086;9.284;2023-03-23T09:56:44;15.50;58.30
4312;DHT22;2169;49.086;9.284;2023-03-23T09:59:16;15.50;58.60
4312;DHT22;2169;49.086;9.284;2023-03-23T10:01:47;15.50;58.70
4312;DHT22;2169;49.086;9.284;2023-03-23T10:04:22;15.50;59.00
4312;DHT22;2169;49.086;9.284;2023-03-23T10:06:52;15.50;59.20
4312;DHT22;2169;49.086;9.284;2023-03-23T10:09:19;15.50;59.30
4312;DHT22;2169;49.086;9.284;2023-03-23T10:11:54;15.40;59.40
4312;DHT22;2169;49.086;9.284;2023-03-23T10:14:33;15.50;59.70
4312;DHT22;2169;49.086;9.284;2023-03-23T10:17:09;15.40;59.90
4312;DHT22;2169;49.086;9.284;2023-03-23T10:19:46;15.40;60.20
4312;DHT22;2169;49.086;9.284;2023-03-23T10:22:18;15.40;60.40
4312;DHT22;2169;49.086;9.284;2023-03-23T10:24:50;15.30;60.50
4312;DHT22;2169;49.086;9.284;2023-03-23T10:27:22;15.30;60.70
4312;DHT22;2169;49.086;9.284;2023-03-23T10:29:55;15.30;61.00
4312;DHT22;2169;49.086;9.284;2023-03-23T10:32:39;15.30;61.20
4312;DHT22;2169;49.086;9.284;2023-03-23T10:35:11;15.30;61.50
4312;DHT22;2169;49.086;9.284;2023-03-23T10:37:46;15.30;61.70
4312;DHT22;2169;49.086;9.284;2023-03-23T10:40:16;15.30;61.80
4312;DHT22;2169;49.086;9.284;2023-03-23T10:42:45;15.30;61.90
4312;DHT22;2169;49.086;9.284;2023-03-23T10:45:17;15.30;61.90
4312;DHT22;2169;49.086;9.284;2023-03-23T10:47:49;15.40;62.30
4312;DHT22;2169;49.086;9.284;2023-03-23T10:50:23;15.40;62.30
4312;DHT22;2169;49.086;9.284;2023-03-23T10:52:52;15.50;62.50
4312;DHT22;2169;49.086;9.284;2023-03-23T10:55:22;15.50;62.50
4312;DHT22;2169;49.086;9.284;2023-03-23T10:58:00;15.60;62.50
4312;DHT22;2169;49.086;9.284;2023-03-23T11:00:28;15.70;62.40
4312;DHT22;2169;49.086;9.284;2023-03-23T11:03:00;15.70;62.30
4312;DHT22;2169;49.086;9.284;2023-03-23T11:05:34;15.70;62.20
4312;DHT22;2169;49.086;9.284;2023-03-23T11:08:03;15.70;62.10
4312;DHT22;2169;49.086;9.284;2023-03-23T11:10:39;15.70;62.00
4312;DHT22;2169;49.086;9.284;2023-03-23T11:13:12;15.80;61.90
4312;DHT22;2169;49.086;9.284;2023-03-23T11:15:40;15.80;61.80
4312;DHT22;2169;49.086;9.284;2023-03-23T11:18:12;15.80;61.70
4312;DHT22;2169;49.086;9.284;2023-03-23T11:20:41;15.80;61.50
4312;DHT22;2169;49.086;9.284;2023-03-23T11:23:22;15.80;61.40
4312;DHT22;2169;49.086;9.284;2023-03-23T11:25:54;15.90;61.40
4312;DHT22;2169;49.086;9.284;2023-03-23T11:28:26;15.90;61.40
4312;DHT22;2169;49.086;9.284;2023-03-23T11:30:54;15.90;61.20
4312;DHT22;2169;49.086;9.284;2023-03-23T11:33:22;15.90;61.10
4312;DHT22;2169;49.086;9.284;2023-03-23T11:35:53;15.90;60.90
4312;DHT22;2169;49.086;9.284;2023-03-23T11:38:23;16.00;61.00
4312;DHT22;2169;49.086;9.284;2023-03-23T11:40:53;16.00;60.80
4312;DHT22;2169;49.086;9.284;2023-03-23T11:43:22;16.00;60.70
4312;DHT22;2169;49.086;9.284;2023-03-23T11:45:55;16.00;60.60
4312;DHT22;2169;49.086;9.284;2023-03-23T11:48:28;16.00;60.50
4312;DHT22;2169;49.086;9.284;2023-03-23T11:51:00;16.10;60.50
4312;DHT22;2169;49.086;9.284;2023-03-23T11:53:37;16.10;60.50
4312;DHT22;2169;49.086;9.284;2023-03-23T11:56:12;16.20;60.40
4312;DHT22;2169;49.086;9.284;2023-03-23T11:58:40;16.20;60.30
4312;DHT22;2169;49.086;9.284;2023-03-23T12:01:13;16.20;60.20
4312;DHT22;2169;49.086;9.284;2023-03-23T12:04:03;16.20;60.20
4312;DHT22;2169;49.086;9.284;2023-03-23T12:06:40;16.20;60.20
4312;DHT22;2169;49.086;9.284;2023-03-23T12:09:23;16.20;60.30
4312;DHT22;2169;49.086;9.284;2023-03-23T12:12:09;16.30;60.40
4312;DHT22;2169;49.086;9.284;2023-03-23T12:14:44;16.30;60.30
4312;DHT22;2169;49.086;9.284;2023-03-23T12:17:22;16.30;60.30
4312;DHT22;2169;49.086;9.284;2023-03-23T12:20:01;16.30;60.30
4312;DHT22;2169;49.086;9.284;2023-03-23T12:22:44;16.30;60.30
4312;DHT22;2169;49.086;9.284;2023-03-23T12:25:31;16.40;60.40
4312;DHT22;2169;49.086;9.284;2023-03-23T12:28:05;16.40;60.40
4312;DHT22;2169;49.086;9.284;2023-03-23T12:30:37;16.40;60.40
4312;DHT22;2169;49.086;9.284;2023-03-23T12:33:17;16.50;60.40
4312;DHT22;2169;49.086;9.284;2023-03-23T12:35:53;16.50;60.20
4312;DHT22;2169;49.086;9.284;2023-03-23T12:38:55;16.40;60.00
4312;DHT22;2169;49.086;9.284;2023-03-23T12:41:28;16.50;60.00
4312;DHT22;2169;49.086;9.284;2023-03-23T12:43:59;16.50;59.90
4312;DHT22;2169;49.086;9.284;2023-03-23T12:47:01;16.50;60.00
4312;DHT22;2169;49.086;9.284;2023-03-23T12:49:33;16.60;59.90
4312;DHT22;2169;49.086;9.284;2023-03-23T12:52:04;16.50;59.80
4312;DHT22;2169;49.086;9.284;2023-03-23T12:54:40;16.50;59.60
4312;DHT22;2169;49.086;9.284;2023-03-23T12:57:14;16.60;59.70
4312;DHT22;2169;49.086;9.284;2023-03-23T12:59:45;16.60;59.70
4312;DHT22;2169;49.086;9.284;2023-03-23T13:02:20;16.70;59.60
4312;DHT22;2169;49.086;9.284;2023-03-23T13:04:51;16.70;59.60
4312;DHT22;2169;49.086;9.284;2023-03-23T13:07:23;16.70;59.40
4312;DHT22;2169;49.086;9.284;2023-03-23T13:09:54;16.70;59.40
4312;DHT22;2169;49.086;9.284;2023-03-23T13:12:25;16.70;59.30
4312;DHT22;2169;49.086;9.284;2023-03-23T13:15:01;16.70;59.20
4312;DHT22;2169;49.086;9.284;2023-03-23T13:17:37;16.80;59.30
4312;DHT22;2169;49.086;9.284;2023-03-23T13:20:47;16.80;59.20
4312;DHT22;2169;49.086;9.284;2023-03-23T13:23:18;16.80;59.10
4312;DHT22;2169;49.086;9.284;2023-03-23T13:25:52;16.80;59.20
4312;DHT22;2169;49.086;9.284;2023-03-23T13:28:24;16.90;59.10
4312;DHT22;2169;49.086;9.284;2023-03-23T13:31:01;16.90;59.00
4312;DHT22;2169;49.086;9.284;2023-03-23T13:33:30;17.00;59.00
4312;DHT22;2169;49.086;9.284;2023-03-23T13:36:07;17.00;58.90
4312;DHT22;2169;49.086;9.284;2023-03-23T13:38:35;17.10;58.80
4312;DHT22;2169;49.086;9.284;2023-03-23T13:41:07;17.10;58.80
4312;DHT22;2169;49.086;9.284;2023-03-23T13:43:37;17.20;58.80
4312;DHT22;2169;49.086;9.284;2023-03-23T13:46:10;17.20;58.60
4312;DHT22;2169;49.086;9.284;2023-03-23T13:48:42;17.20;58.40
4312;DHT22;2169;49.086;9.284;2023-03-23T13:51:26;17.20;58.20
4312;DHT22;2169;49.086;9.284;2023-03-23T13:54:06;17.30;58.30
4312;DHT22;2169;49.086;9.284;2023-03-23T13:56:39;17.30;58.20
4312;DHT22;2169;49.086;9.284;2023-03-23T13:59:13;17.30;58.20
4312;DHT22;2169;49.086;9.284;2023-03-23T14:01:41;17.30;58.00
4312;DHT22;2169;49.086;9.284;2023-03-23T14:04:12;17.30;58.00
4312;DHT22;2169;49.086;9.284;2023-03-23T14:06:40;17.40;57.90
4312;DHT22;2169;49.086;9.284;2023-03-23T14:09:10;17.40;57.90
4312;DHT22;2169;49.086;9.284;2023-03-23T14:11:47;17.40;57.90
4312;DHT22;2169;49.086;9.284;2023-03-23T14:14:22;17.50;57.80
4312;DHT22;2169;49.086;9.284;2023-03-23T14:16:51;17.50;57.70
4312;DHT22;2169;49.086;9.284;2023-03-23T14:19:22;17.40;57.60
4312;DHT22;2169;49.086;9.284;2023-03-23T14:21:52;17.50;57.60
4312;DHT22;2169;49.086;9.284;2023-03-23T14:24:21;17.50;57.60
4312;DHT22;2169;49.086;9.284;2023-03-23T14:26:50;17.60;57.70
4312;DHT22;2169;49.086;9.284;2023-03-23T14:29:20;17.60;57.60
4312;DHT22;2169;49.086;9.284;2023-03-23T14:31:53;17.70;58.20
4312;DHT22;2169;49.086;9.284;2023-03-23T14:34:23;17.60;57.30
4312;DHT22;2169;49.086;9.284;2023-03-23T14:36:50;17.70;57.30
4312;DHT22;2169;49.086;9.284;2023-03-23T14:39:21;17.70;57.20
4312;DHT22;2169;49.086;9.284;2023-03-23T14:41:49;17.70;57.00
4312;DHT22;2169;49.086;9.284;2023-03-23T14:44:21;17.70;57.10
4312;DHT22;2169;49.086;9.284;2023-03-23T14:46:49;17.80;57.10
4312;DHT22;2169;49.086;9.284;2023-03-23T14:49:18;17.70;57.00
4312;DHT22;2169;49.086;9.284;2023-03-23T14:51:50;17.70;57.00
4312;DHT22;2169;49.086;9.284;2023-03-23T14:54:22;17.70;57.00
4312;DHT22;2169;49.086;9.284;2023-03-23T14:56:49;17.70;57.00
4312;DHT22;2169;49.086;9.284;2023-03-23T14:59:16;17.70;57.00
4312;DHT22;2169;49.086;9.284;2023-03-23T15:01:46;17.70;57.00
4312;DHT22;2169;49.086;9.284;2023-03-23T15:04:16;17.60;56.90
4312;DHT22;2169;49.086;9.284;2023-03-23T15:06:47;17.60;56.90
4312;DHT22;2169;49.086;9.284;2023-03-23T15:09:18;17.60;56.90
4312;DHT22;2169;49.086;9.284;2023-03-23T15:11:52;17.60;56.80
4312;DHT22;2169;49.086;9.284;2023-03-23T15:14:21;17.60;56.80
4312;DHT22;2169;49.086;9.284;2023-03-23T15:16:51;17.50;56.80
4312;DHT22;2169;49.086;9.284;2023-03-23T15:19:21;17.50;56.70
4312;DHT22;2169;49.086;9.284;2023-03-23T15:21:51;17.50;56.80
4312;DHT22;2169;49.086;9.284;2023-03-23T15:24:23;17.50;56.70
4312;DHT22;2169;49.086;9.284;2023-03-23T15:26:51;17.50;56.70
4312;DHT22;2169;49.086;9.284;2023-03-23T15:29:19;17.50;56.70
4312;DHT22;2169;49.086;9.284;2023-03-23T15:31:51;17.50;56.70
4312;DHT22;2169;49.086;9.284;2023-03-23T15:34:24;17.50;56.80
4312;DHT22;2169;49.086;9.284;2023-03-23T15:36:55;17.50;56.70
4312;DHT22;2169;49.086;9.284;2023-03-23T15:39:22;17.50;56.70
4312;DHT22;2169;49.086;9.284;2023-03-23T15:41:51;17.50;56.70
4312;DHT22;2169;49.086;9.284;2023-03-23T15:44:35;17.50;56.70
4312;DHT22;2169;49.086;9.284;2023-03-23T15:47:19;17.60;56.70
4312;DHT22;2169;49.086;9.284;2023-03-23T15:49:46;17.50;56.60
4312;DHT22;2169;49.086;9.284;2023-03-23T15:52:15;17.50;56.60
4312;DHT22;2169;49.086;9.284;2023-03-23T15:54:48;17.50;56.60
4312;DHT22;2169;49.086;9.284;2023-03-23T15:57:15;17.50;56.50
4312;DHT22;2169;49.086;9.284;2023-03-23T15:59:41;17.50;56.50
4312;DHT22;2169;49.086;9.284;2023-03-23T16:02:17;17.50;56.50
4312;DHT22;2169;49.086;9.284;2023-03-23T16:04:47;17.50;56.70
4312;DHT22;2169;49.086;9.284;2023-03-23T16:07:14;17.50;56.80
4312;DHT22;2169;49.086;9.284;2023-03-23T16:09:40;17.50;56.90
4312;DHT22;2169;49.086;9.284;2023-03-23T16:12:10;17.50;57.00
4312;DHT22;2169;49.086;9.284;2023-03-23T16:14:37;17.50;57.00
4312;DHT22;2169;49.086;9.284;2023-03-23T16:17:05;17.50;57.10
4312;DHT22;2169;49.086;9.284;2023-03-23T16:19:32;17.50;57.30
4312;DHT22;2169;49.086;9.284;2023-03-23T16:22:00;17.40;57.40
4312;DHT22;2169;49.086;9.284;2023-03-23T16:24:26;17.50;57.50
4312;DHT22;2169;49.086;9.284;2023-03-23T16:26:53;17.50;57.50
4312;DHT22;2169;49.086;9.284;2023-03-23T16:29:20;17.50;57.70